sensor_id;sensor_type;location;lat;lon;timestamp;pressure;altitude;pressure_sealevel;temperature;humidity
4858;BME280;58975;51.978;8.472;2022-11-13T00:01:17;101499.94;;;5.32;100.00
4858;BME280;58975;51.978;8.472;2022-11-13T00:06:15;101489.84;;;5.42;100.00
4858;BME280;58975;51.978;8.472;2022-11-13T00:11:16;101497.00;;;5.60;100.00
4858;BME280;58975;51.978;8.472;2022-11-13T00:16:18;101491.94;;;5.76;100.00
4858;BME280;58975;51.978;8.472;2022-11-13T00:21:17;101484.06;;;5.74;100.00
4858;BME280;58975;51.978;8.472;2022-11-13T00:26:17;101474.59;;;5.68;100.00
4858;BME280;58975;51.978;8.472;2022-11-13T00:31:14;101472.94;;;5.66;100.00
4858;BME280;58975;51.978;8.472;2022-11-13T00:36:14;101469.59;;;5.62;100.00
4858;BME280;58975;51.978;8.472;2022-11-13T00:41:11;101469.78;;;5.78;100.00
4858;BME280;58975;51.978;8.472;2022-11-13T00:46:08;101471.50;;;5.79;100.00
4858;BME280;58975;51.978;8.472;2022-11-13T00:51:05;101470.13;;;5.70;100.00
4858;BME280;58975;51.978;8.472;2022-11-13T00:56:01;101466.88;;;5.64;100.00
4858;BME280;58975;51.978;8.472;2022-11-13T01:01:06;101466.88;;;5.64;100.00
4858;BME280;58975;51.978;8.472;2022-11-13T01:06:16;101464.88;;;5.69;100.00
4858;BME280;58975;51.978;8.472;2022-11-13T01:11:16;101453.88;;;5.59;100.00
4858;BME280;58975;51.978;8.472;2022-11-13T01:16:14;101453.97;;;5.77;100.00
4858;BME280;58975;51.978;8.472;2022-11-13T01:21:15;101455.78;;;5.56;100.00
4858;BME280;58975;51.978;8.472;2022-11-13T01:26:18;101457.56;;;5.55;100.00
4858;BME280;58975;51.978;8.472;2022-11-13T01:31:20;101454.44;;;5.66;100.00
4858;BME280;58975;51.978;8.472;2022-11-13T01:36:26;101455.03;;;5.72;100.00
4858;BME280;58975;51.978;8.472;2022-11-13T01:41:31;101451.63;;;5.70;100.00
4858;BME280;58975;51.978;8.472;2022-11-13T01:46:29;101443.22;;;5.61;100.00
4858;BME280;58975;51.978;8.472;2022-11-13T01:51:33;101437.28;;;5.56;100.00
4858;BME280;58975;51.978;8.472;2022-11-13T01:56:30;101434.97;;;5.48;100.00
4858;BME280;58975;51.978;8.472;2022-11-13T02:01:27;101429.47;;;5.73;100.00
4858;BME280;58975;51.978;8.472;2022-11-13T02:06:27;101422.00;;;5.62;100.00
4858;BME280;58975;51.978;8.472;2022-11-13T02:11:24;101419.31;;;5.64;100.00
4858;BME280;58975;51.978;8.472;2022-11-13T02:16:21;101414.56;;;5.52;100.00
4858;BME280;58975;51.978;8.472;2022-11-13T02:21:24;101410.16;;;5.52;100.00
4858;BME280;58975;51.978;8.472;2022-11-13T02:26:25;101410.88;;;5.56;100.00
4858;BME280;58975;51.978;8.472;2022-11-13T02:31:23;101410.41;;;5.46;100.00
4858;BME280;58975;51.978;8.472;2022-11-13T02:36:21;101409.44;;;5.49;100.00
4858;BME280;58975;51.978;8.472;2022-11-13T02:41:20;101403.47;;;5.44;100.00
4858;BME280;58975;51.978;8.472;2022-11-13T02:46:16;101396.84;;;5.54;100.00
4858;BME280;58975;51.978;8.472;2022-11-13T02:51:12;101401.28;;;5.53;100.00
4858;BME280;58975;51.978;8.472;2022-11-13T02:56:09;101399.63;;;5.51;100.00
4858;BME280;58975;51.978;8.472;2022-11-13T03:01:06;101403.19;;;5.50;100.00
4858;BME280;58975;51.978;8.472;2022-11-13T03:06:02;101387.63;;;5.64;100.00
4858;BME280;58975;51.978;8.472;2022-11-13T03:10:58;101384.44;;;5.56;100.00
4858;BME280;58975;51.978;8.472;2022-11-13T03:15:55;101392.91;;;5.64;100.00
4858;BME280;58975;51.978;8.472;2022-11-13T03:20:51;101387.16;;;5.54;100.00
4858;BME280;58975;51.978;8.472;2022-11-13T03:25:49;101375.84;;;5.51;100.00
4858;BME280;58975;51.978;8.472;2022-11-13T03:30:46;101381.41;;;5.45;100.00
4858;BME280;58975;51.978;8.472;2022-11-13T03:35:42;101379.09;;;5.37;100.00
4858;BME280;58975;51.978;8.472;2022-11-13T03:40:42;101382.28;;;5.25;100.00
4858;BME280;58975;51.978;8.472;2022-11-13T03:45:39;101378.25;;;5.16;100.00
4858;BME280;58975;51.978;8.472;2022-11-13T03:50:35;101370.03;;;5.02;100.00
4858;BME280;58975;51.978;8.472;2022-11-13T03:55:38;101367.66;;;4.96;100.00
4858;BME280;58975;51.978;8.472;2022-11-13T04:00:35;101367.41;;;5.02;100.00
4858;BME280;58975;51.978;8.472;2022-11-13T04:05:32;101362.25;;;4.99;100.00
4858;BME280;58975;51.978;8.472;2022-11-13T04:10:29;101350.38;;;4.89;100.00
4858;BME280;58975;51.978;8.472;2022-11-13T04:15:25;101338.44;;;5.01;100.00
4858;BME280;58975;51.978;8.472;2022-11-13T04:20:22;101341.78;;;4.84;100.00
4858;BME280;58975;51.978;8.472;2022-11-13T04:25:18;101337.97;;;4.91;100.00
4858;BME280;58975;51.978;8.472;2022-11-13T04:30:14;101333.34;;;4.76;100.00
4858;BME280;58975;51.978;8.472;2022-11-13T04:35:11;101331.78;;;4.50;100.00
4858;BME280;58975;51.978;8.472;2022-11-13T04:40:08;101335.94;;;4.34;100.00
4858;BME280;58975;51.978;8.472;2022-11-13T04:45:05;101330.16;;;4.24;100.00
4858;BME280;58975;51.978;8.472;2022-11-13T04:50:02;101318.09;;;4.19;100.00
4858;BME280;58975;51.978;8.472;2022-11-13T04:54:59;101312.88;;;4.17;100.00
4858;BME280;58975;51.978;8.472;2022-11-13T04:59:55;101317.56;;;4.11;100.00
4858;BME280;58975;51.978;8.472;2022-11-13T05:04:52;101310.59;;;4.08;100.00
4858;BME280;58975;51.978;8.472;2022-11-13T05:09:48;101310.97;;;3.99;100.00
4858;BME280;58975;51.978;8.472;2022-11-13T05:14:45;101300.50;;;3.98;100.00
4858;BME280;58975;51.978;8.472;2022-11-13T05:19:41;101289.69;;;3.82;100.00
4858;BME280;58975;51.978;8.472;2022-11-13T05:24:37;101284.66;;;3.76;100.00
4858;BME280;58975;51.978;8.472;2022-11-13T05:29:34;101283.53;;;3.60;100.00
4858;BME280;58975;51.978;8.472;2022-11-13T05:34:30;101279.50;;;3.50;100.00
4858;BME280;58975;51.978;8.472;2022-11-13T05:39:26;101282.25;;;3.47;100.00
4858;BME280;58975;51.978;8.472;2022-11-13T05:44:23;101273.75;;;3.40;100.00
4858;BME280;58975;51.978;8.472;2022-11-13T05:49:19;101274.41;;;3.45;100.00
4858;BME280;58975;51.978;8.472;2022-11-13T05:54:15;101266.69;;;3.41;100.00
4858;BME280;58975;51.978;8.472;2022-11-13T05:59:12;101267.53;;;3.41;100.00
4858;BME280;58975;51.978;8.472;2022-11-13T06:04:08;101266.47;;;3.47;100.00
4858;BME280;58975;51.978;8.472;2022-11-13T06:09:05;101260.56;;;3.63;100.00
4858;BME280;58975;51.978;8.472;2022-11-13T06:14:02;101250.81;;;3.65;100.00
4858;BME280;58975;51.978;8.472;2022-11-13T06:19:01;101245.88;;;3.79;100.00
4858;BME280;58975;51.978;8.472;2022-11-13T06:24:00;101242.38;;;4.01;100.00
4858;BME280;58975;51.978;8.472;2022-11-13T06:28:57;101227.94;;;4.11;100.00
4858;BME280;58975;51.978;8.472;2022-11-13T06:33:55;101233.63;;;4.22;100.00
4858;BME280;58975;51.978;8.472;2022-11-13T06:38:52;101230.97;;;4.22;100.00
4858;BME280;58975;51.978;8.472;2022-11-13T06:43:49;101227.66;;;4.17;100.00
4858;BME280;58975;51.978;8.472;2022-11-13T06:48:46;101227.88;;;4.33;100.00
4858;BME280;58975;51.978;8.472;2022-11-13T06:53:43;101225.75;;;4.42;100.00
4858;BME280;58975;51.978;8.472;2022-11-13T06:58:39;101222.47;;;4.36;100.00
4858;BME280;58975;51.978;8.472;2022-11-13T07:03:36;101224.78;;;4.43;100.00
4858;BME280;58975;51.978;8.472;2022-11-13T07:08:33;101232.66;;;4.45;100.00
4858;BME280;58975;51.978;8.472;2022-11-13T07:13:29;101239.13;;;4.58;100.00
4858;BME280;58975;51.978;8.472;2022-11-13T07:18:26;101228.44;;;4.61;100.00
4858;BME280;58975;51.978;8.472;2022-11-13T07:23:22;101218.28;;;4.72;100.00
4858;BME280;58975;51.978;8.472;2022-11-13T07:28:20;101220.53;;;4.81;100.00
4858;BME280;58975;51.978;8.472;2022-11-13T07:33:16;101217.59;;;4.87;100.00
4858;BME280;58975;51.978;8.472;2022-11-13T07:38:12;101203.38;;;5.10;100.00
4858;BME280;58975;51.978;8.472;2022-11-13T07:43:09;101205.78;;;5.35;100.00
4858;BME280;58975;51.978;8.472;2022-11-13T07:48:05;101199.50;;;5.56;100.00
4858;BME280;58975;51.978;8.472;2022-11-13T07:53:04;101196.91;;;5.73;100.00
4858;BME280;58975;51.978;8.472;2022-11-13T07:58:02;101194.34;;;5.90;100.00
4858;BME280;58975;51.978;8.472;2022-11-13T08:03:11;101208.16;;;6.14;100.00
4858;BME280;58975;51.978;8.472;2022-11-13T08:08:12;101209.63;;;6.37;100.00
4858;BME280;58975;51.978;8.472;2022-11-13T08:13:10;101214.63;;;6.77;100.00
4858;BME280;58975;51.978;8.472;2022-11-13T08:18:06;101220.66;;;6.96;100.00
4858;BME280;58975;51.978;8.472;2022-11-13T08:23:03;101216.00;;;7.01;100.00
4858;BME280;58975;51.978;8.472;2022-11-13T08:28:00;101213.00;;;7.07;100.00
4858;BME280;58975;51.978;8.472;2022-11-13T08:32:56;101220.75;;;7.28;100.00
4858;BME280;58975;51.978;8.472;2022-11-13T08:37:53;101218.03;;;7.45;100.00
4858;BME280;58975;51.978;8.472;2022-11-13T08:42:49;101218.88;;;7.61;100.00
4858;BME280;58975;51.978;8.472;2022-11-13T08:47:45;101220.69;;;7.60;100.00
4858;BME280;58975;51.978;8.472;2022-11-13T08:52:42;101215.13;;;7.81;100.00
4858;BME280;58975;51.978;8.472;2022-11-13T08:57:38;101209.66;;;7.99;100.00
4858;BME280;58975;51.978;8.472;2022-11-13T09:02:35;101208.94;;;8.12;100.00
4858;BME280;58975;51.978;8.472;2022-11-13T09:07:31;101206.69;;;8.20;100.00
4858;BME280;58975;51.978;8.472;2022-11-13T09:12:28;101195.06;;;8.22;100.00
4858;BME280;58975;51.978;8.472;2022-11-13T09:17:24;101180.16;;;8.35;100.00
4858;BME280;58975;51.978;8.472;2022-11-13T09:22:21;101185.06;;;8.57;100.00
4858;BME280;58975;51.978;8.472;2022-11-13T09:27:17;101180.34;;;8.90;100.00
4858;BME280;58975;51.978;8.472;2022-11-13T09:32:14;101183.69;;;9.22;100.00
4858;BME280;58975;51.978;8.472;2022-11-13T09:37:14;101178.91;;;9.41;100.00
4858;BME280;58975;51.978;8.472;2022-11-13T09:42:21;101171.44;;;9.48;100.00
4858;BME280;58975;51.978;8.472;2022-11-13T09:47:32;101166.84;;;9.64;100.00
4858;BME280;58975;51.978;8.472;2022-11-13T09:52:33;101168.09;;;9.85;100.00
4858;BME280;58975;51.978;8.472;2022-11-13T09:57:40;101156.72;;;9.96;100.00
4858;BME280;58975;51.978;8.472;2022-11-13T10:13:12;101132.47;;;10.27;100.00
4858;BME280;58975;51.978;8.472;2022-11-13T10:28:18;101135.16;;;10.40;100.00
4858;BME280;58975;51.978;8.472;2022-11-13T10:33:35;101132.81;;;10.35;100.00
4858;BME280;58975;51.978;8.472;2022-11-13T10:38:42;101121.63;;;10.43;100.00
4858;BME280;58975;51.978;8.472;2022-11-13T10:49:21;101103.75;;;10.83;100.00
4858;BME280;58975;51.978;8.472;2022-11-13T10:54:27;101096.50;;;10.98;100.00
4858;BME280;58975;51.978;8.472;2022-11-13T10:59:24;101096.66;;;11.20;100.00
4858;BME280;58975;51.978;8.472;2022-11-13T11:04:24;101083.22;;;11.45;100.00
4858;BME280;58975;51.978;8.472;2022-11-13T11:09:25;101084.41;;;11.77;100.00
4858;BME280;58975;51.978;8.472;2022-11-13T11:20:05;101063.84;;;12.37;100.00
4858;BME280;58975;51.978;8.472;2022-11-13T11:25:13;101055.38;;;12.54;100.00
4858;BME280;58975;51.978;8.472;2022-11-13T11:30:18;101054.16;;;12.69;100.00
4858;BME280;58975;51.978;8.472;2022-11-13T11:35:19;101051.50;;;12.80;100.00
4858;BME280;58975;51.978;8.472;2022-11-13T11:40:30;101043.13;;;12.85;100.00
4858;BME280;58975;51.978;8.472;2022-11-13T11:45:36;101043.00;;;12.97;100.00
4858;BME280;58975;51.978;8.472;2022-11-13T11:50:50;101041.66;;;13.14;100.00
4858;BME280;58975;51.978;8.472;2022-11-13T11:55:59;101036.50;;;13.33;100.00
4858;BME280;58975;51.978;8.472;2022-11-13T12:01:09;101030.34;;;13.53;100.00
4858;BME280;58975;51.978;8.472;2022-11-13T12:11:16;101028.06;;;13.81;96.83
4858;BME280;58975;51.978;8.472;2022-11-13T12:16:29;101027.28;;;13.90;85.10
4858;BME280;58975;51.978;8.472;2022-11-13T12:26:55;101012.72;;;14.24;73.79
4858;BME280;58975;51.978;8.472;2022-11-13T12:32:06;101006.25;;;14.47;72.05
4858;BME280;58975;51.978;8.472;2022-11-13T12:37:19;101002.06;;;14.54;68.03
4858;BME280;58975;51.978;8.472;2022-11-13T12:42:28;100995.44;;;14.58;71.68
4858;BME280;58975;51.978;8.472;2022-11-13T12:47:27;100988.13;;;14.60;70.79
4858;BME280;58975;51.978;8.472;2022-11-13T12:52:23;100981.94;;;14.70;68.25
4858;BME280;58975;51.978;8.472;2022-11-13T12:57:24;100980.81;;;14.72;63.60
4858;BME280;58975;51.978;8.472;2022-11-13T13:07:51;100971.97;;;14.81;59.95
4858;BME280;58975;51.978;8.472;2022-11-13T13:13:30;100962.78;;;14.84;56.31
4858;BME280;58975;51.978;8.472;2022-11-13T13:18:32;100949.97;;;14.87;56.63
4858;BME280;58975;51.978;8.472;2022-11-13T13:23:37;100938.38;;;14.87;58.23
4858;BME280;58975;51.978;8.472;2022-11-13T13:28:38;100927.50;;;14.79;57.83
4858;BME280;58975;51.978;8.472;2022-11-13T13:38:45;100915.19;;;14.66;56.88
4858;BME280;58975;51.978;8.472;2022-11-13T13:44:03;100908.69;;;14.59;53.58
4858;BME280;58975;51.978;8.472;2022-11-13T13:49:10;100904.16;;;14.50;54.33
4858;BME280;58975;51.978;8.472;2022-11-13T13:54:18;100900.47;;;14.51;55.98
4858;BME280;58975;51.978;8.472;2022-11-13T13:59:19;100890.47;;;14.53;51.74
4858;BME280;58975;51.978;8.472;2022-11-13T14:04:19;100890.03;;;14.48;53.86
4858;BME280;58975;51.978;8.472;2022-11-13T14:09:24;100887.19;;;14.40;55.22
4858;BME280;58975;51.978;8.472;2022-11-13T14:14:22;100890.50;;;14.23;56.47
4858;BME280;58975;51.978;8.472;2022-11-13T14:19:19;100902.03;;;14.23;58.54
4858;BME280;58975;51.978;8.472;2022-11-13T14:24:21;100883.34;;;14.03;60.15
4858;BME280;58975;51.978;8.472;2022-11-13T14:29:32;100885.38;;;13.90;62.77
4858;BME280;58975;51.978;8.472;2022-11-13T14:34:30;100885.53;;;13.67;64.55
4858;BME280;58975;51.978;8.472;2022-11-13T14:39:29;100886.13;;;13.50;67.80
4858;BME280;58975;51.978;8.472;2022-11-13T14:44:32;100882.66;;;13.39;69.55
4858;BME280;58975;51.978;8.472;2022-11-13T14:49:32;100875.09;;;13.23;72.78
4858;BME280;58975;51.978;8.472;2022-11-13T14:54:34;100877.19;;;13.08;76.55
4858;BME280;58975;51.978;8.472;2022-11-13T14:59:51;100862.81;;;12.89;79.87
4858;BME280;58975;51.978;8.472;2022-11-13T15:04:47;100859.44;;;12.75;76.48
4858;BME280;58975;51.978;8.472;2022-11-13T15:09:44;100860.69;;;12.60;74.84
4858;BME280;58975;51.978;8.472;2022-11-13T15:14:40;100861.72;;;12.37;75.41
4858;BME280;58975;51.978;8.472;2022-11-13T15:19:37;100859.91;;;12.04;81.09
4858;BME280;58975;51.978;8.472;2022-11-13T15:24:33;100858.69;;;11.75;84.12
4858;BME280;58975;51.978;8.472;2022-11-13T15:29:30;100862.44;;;11.72;83.31
4858;BME280;58975;51.978;8.472;2022-11-13T15:34:26;100856.59;;;11.56;87.76
4858;BME280;58975;51.978;8.472;2022-11-13T15:39:23;100851.94;;;11.36;93.78
4858;BME280;58975;51.978;8.472;2022-11-13T15:44:19;100849.16;;;11.14;98.69
4858;BME280;58975;51.978;8.472;2022-11-13T15:49:15;100850.56;;;10.96;97.40
4858;BME280;58975;51.978;8.472;2022-11-13T15:54:15;100850.84;;;10.80;98.76
4858;BME280;58975;51.978;8.472;2022-11-13T15:59:13;100850.97;;;10.78;96.23
4858;BME280;58975;51.978;8.472;2022-11-13T16:04:10;100839.19;;;10.70;99.53
4858;BME280;58975;51.978;8.472;2022-11-13T16:09:11;100840.19;;;10.56;97.95
4858;BME280;58975;51.978;8.472;2022-11-13T16:14:08;100822.78;;;10.39;100.00
4858;BME280;58975;51.978;8.472;2022-11-13T16:19:12;100826.41;;;10.15;100.00
4858;BME280;58975;51.978;8.472;2022-11-13T16:24:10;100820.75;;;9.94;100.00
4858;BME280;58975;51.978;8.472;2022-11-13T16:29:16;100808.63;;;9.90;100.00
4858;BME280;58975;51.978;8.472;2022-11-13T16:34:13;100805.25;;;9.63;100.00
4858;BME280;58975;51.978;8.472;2022-11-13T16:39:14;100802.91;;;9.45;100.00
4858;BME280;58975;51.978;8.472;2022-11-13T16:44:11;100794.50;;;9.14;100.00
4858;BME280;58975;51.978;8.472;2022-11-13T16:49:12;100790.78;;;9.03;100.00
4858;BME280;58975;51.978;8.472;2022-11-13T16:54:13;100795.44;;;8.87;100.00
4858;BME280;58975;51.978;8.472;2022-11-13T16:59:10;100790.13;;;8.87;100.00
4858;BME280;58975;51.978;8.472;2022-11-13T17:04:10;100782.03;;;8.76;100.00
4858;BME280;58975;51.978;8.472;2022-11-13T17:09:08;100789.16;;;8.49;100.00
4858;BME280;58975;51.978;8.472;2022-11-13T17:14:05;100787.59;;;8.32;100.00
4858;BME280;58975;51.978;8.472;2022-11-13T17:19:01;100788.31;;;8.07;100.00
4858;BME280;58975;51.978;8.472;2022-11-13T17:24:00;100785.22;;;7.87;100.00
4858;BME280;58975;51.978;8.472;2022-11-13T17:28:57;100781.44;;;7.63;100.00
4858;BME280;58975;51.978;8.472;2022-11-13T17:33:57;100775.66;;;7.28;100.00
4858;BME280;58975;51.978;8.472;2022-11-13T17:38:53;100773.34;;;6.93;100.00
4858;BME280;58975;51.978;8.472;2022-11-13T17:43:50;100769.13;;;6.75;100.00
4858;BME280;58975;51.978;8.472;2022-11-13T17:48:48;100764.66;;;6.61;100.00
4858;BME280;58975;51.978;8.472;2022-11-13T17:53:45;100772.03;;;6.41;100.00
4858;BME280;58975;51.978;8.472;2022-11-13T17:58:43;100778.22;;;6.26;100.00
4858;BME280;58975;51.978;8.472;2022-11-13T18:03:40;100781.78;;;6.09;100.00
4858;BME280;58975;51.978;8.472;2022-11-13T18:08:37;100774.66;;;5.95;100.00
4858;BME280;58975;51.978;8.472;2022-11-13T18:13:34;100773.56;;;5.82;100.00
4858;BME280;58975;51.978;8.472;2022-11-13T18:18:31;100769.81;;;5.70;100.00
4858;BME280;58975;51.978;8.472;2022-11-13T18:23:28;100751.75;;;5.63;100.00
4858;BME280;58975;51.978;8.472;2022-11-13T18:28:25;100743.31;;;5.56;100.00
4858;BME280;58975;51.978;8.472;2022-11-13T18:33:21;100726.16;;;5.48;100.00
4858;BME280;58975;51.978;8.472;2022-11-13T18:38:17;100738.94;;;5.40;100.00
4858;BME280;58975;51.978;8.472;2022-11-13T18:43:14;100734.56;;;5.39;100.00
4858;BME280;58975;51.978;8.472;2022-11-13T18:48:10;100744.00;;;5.27;100.00
4858;BME280;58975;51.978;8.472;2022-11-13T18:53:06;100757.53;;;5.21;100.00
4858;BME280;58975;51.978;8.472;2022-11-13T18:58:03;100757.00;;;5.14;100.00
4858;BME280;58975;51.978;8.472;2022-11-13T19:02:59;100767.88;;;5.08;100.00
4858;BME280;58975;51.978;8.472;2022-11-13T19:07:55;100763.75;;;5.03;100.00
4858;BME280;58975;51.978;8.472;2022-11-13T19:12:52;100762.31;;;4.97;100.00
4858;BME280;58975;51.978;8.472;2022-11-13T19:17:49;100750.84;;;4.81;100.00
4858;BME280;58975;51.978;8.472;2022-11-13T19:22:48;100739.81;;;4.73;100.00
4858;BME280;58975;51.978;8.472;2022-11-13T19:27:44;100730.50;;;4.66;100.00
4858;BME280;58975;51.978;8.472;2022-11-13T19:32:41;100719.50;;;4.58;100.00
4858;BME280;58975;51.978;8.472;2022-11-13T19:37:37;100706.06;;;4.45;100.00
4858;BME280;58975;51.978;8.472;2022-11-13T19:42:33;100711.34;;;4.45;100.00
4858;BME280;58975;51.978;8.472;2022-11-13T19:47:36;100700.97;;;4.42;100.00
4858;BME280;58975;51.978;8.472;2022-11-13T19:52:32;100705.22;;;4.45;100.00
4858;BME280;58975;51.978;8.472;2022-11-13T19:57:28;100686.97;;;4.40;100.00
4858;BME280;58975;51.978;8.472;2022-11-13T20:02:24;100692.00;;;4.27;100.00
4858;BME280;58975;51.978;8.472;2022-11-13T20:07:22;100675.88;;;4.16;100.00
4858;BME280;58975;51.978;8.472;2022-11-13T20:12:18;100666.75;;;4.06;100.00
4858;BME280;58975;51.978;8.472;2022-11-13T20:17:14;100663.78;;;3.95;100.00
4858;BME280;58975;51.978;8.472;2022-11-13T20:22:12;100657.66;;;3.95;100.00
4858;BME280;58975;51.978;8.472;2022-11-13T20:27:08;100662.22;;;3.91;100.00
4858;BME280;58975;51.978;8.472;2022-11-13T20:32:04;100659.13;;;3.83;100.00
4858;BME280;58975;51.978;8.472;2022-11-13T20:37:00;100656.91;;;3.74;100.00
4858;BME280;58975;51.978;8.472;2022-11-13T20:41:57;100641.91;;;3.76;100.00
4858;BME280;58975;51.978;8.472;2022-11-13T20:46:53;100645.47;;;3.75;100.00
4858;BME280;58975;51.978;8.472;2022-11-13T20:51:50;100633.38;;;3.71;100.00
4858;BME280;58975;51.978;8.472;2022-11-13T20:56:52;100639.75;;;3.65;100.00
4858;BME280;58975;51.978;8.472;2022-11-13T21:01:48;100640.34;;;3.72;100.00
4858;BME280;58975;51.978;8.472;2022-11-13T21:06:45;100637.94;;;3.67;100.00
4858;BME280;58975;51.978;8.472;2022-11-13T21:11:42;100642.97;;;3.72;100.00
4858;BME280;58975;51.978;8.472;2022-11-13T21:16:39;100636.28;;;3.65;100.00
4858;BME280;58975;51.978;8.472;2022-11-13T21:21:37;100638.09;;;3.64;100.00
4858;BME280;58975;51.978;8.472;2022-11-13T21:26:34;100621.22;;;3.68;100.00
4858;BME280;58975;51.978;8.472;2022-11-13T21:31:31;100616.69;;;3.70;100.00
4858;BME280;58975;51.978;8.472;2022-11-13T21:36:28;100616.75;;;3.69;100.00
4858;BME280;58975;51.978;8.472;2022-11-13T21:41:24;100611.75;;;3.64;100.00
4858;BME280;58975;51.978;8.472;2022-11-13T21:46:24;100617.50;;;3.54;100.00
4858;BME280;58975;51.978;8.472;2022-11-13T21:51:20;100621.22;;;3.50;100.00
4858;BME280;58975;51.978;8.472;2022-11-13T21:56:17;100625.22;;;3.40;100.00
4858;BME280;58975;51.978;8.472;2022-11-13T22:01:14;100600.84;;;3.36;100.00
4858;BME280;58975;51.978;8.472;2022-11-13T22:11:19;100597.97;;;3.41;100.00
4858;BME280;58975;51.978;8.472;2022-11-13T22:16:15;100591.91;;;3.21;100.00
4858;BME280;58975;51.978;8.472;2022-11-13T22:21:13;100585.13;;;3.16;100.00
4858;BME280;58975;51.978;8.472;2022-11-13T22:26:12;100582.56;;;3.14;100.00
4858;BME280;58975;51.978;8.472;2022-11-13T22:31:19;100584.56;;;3.09;100.00
4858;BME280;58975;51.978;8.472;2022-11-13T22:36:19;100573.41;;;3.04;100.00
4858;BME280;58975;51.978;8.472;2022-11-13T22:41:18;100574.97;;;3.08;100.00
4858;BME280;58975;51.978;8.472;2022-11-13T22:46:21;100566.41;;;3.03;100.00
4858;BME280;58975;51.978;8.472;2022-11-13T22:51:18;100570.78;;;3.04;100.00
4858;BME280;58975;51.978;8.472;2022-11-13T22:56:16;100554.19;;;3.02;100.00
4858;BME280;58975;51.978;8.472;2022-11-13T23:01:17;100538.84;;;2.93;100.00
4858;BME280;58975;51.978;8.472;2022-11-13T23:06:19;100545.53;;;2.81;100.00
4858;BME280;58975;51.978;8.472;2022-11-13T23:11:20;100530.22;;;2.71;100.00
4858;BME280;58975;51.978;8.472;2022-11-13T23:16:17;100514.84;;;2.82;100.00
4858;BME280;58975;51.978;8.472;2022-11-13T23:21:14;100511.56;;;2.77;100.00
4858;BME280;58975;51.978;8.472;2022-11-13T23:26:12;100502.75;;;2.78;100.00
4858;BME280;58975;51.978;8.472;2022-11-13T23:31:09;100495.78;;;2.77;100.00
4858;BME280;58975;51.978;8.472;2022-11-13T23:36:08;100481.84;;;2.75;100.00
4858;BME280;58975;51.978;8.472;2022-11-13T23:41:05;100488.81;;;2.76;100.00
4858;BME280;58975;51.978;8.472;2022-11-13T23:46:02;100493.81;;;2.82;100.00
4858;BME280;58975;51.978;8.472;2022-11-13T23:50:59;100490.44;;;2.78;100.00
4858;BME280;58975;51.978;8.472;2022-11-13T23:55:56;100491.09;;;2.65;100.00
